| time (UTC) | temp C | wind direction | speed KPH | gust KPH | rain 1hr cm | rain 24hr cm | rain mn cm | humidity % | barometer mb |
| 20260504202045 | 25 | 59 | 3.2 | 8.0 | 0.00 | 0.00 | 0.00 | 27 | 1007.4 |
| 20260504201544 | 25 | 29 | 1.6 | 6.4 | 0.00 | 0.00 | 0.00 | 29 | 1007.5 |
| 20260504201042 | 25 | 82 | 0.0 | 8.0 | 0.00 | 0.00 | 0.00 | 28 | 1007.5 |
| 20260504200543 | 25 | 306 | 3.2 | 6.4 | 0.00 | 0.00 | 0.00 | 29 | 1007.6 |
| 20260504200043 | 25 | 261 | 0.0 | 8.0 | 0.00 | 0.00 | 0.00 | 30 | 1007.5 |
| 20260504195543 | 25 | 30 | 3.2 | 8.0 | 0.00 | 0.00 | 0.00 | 29 | 1007.6 |
| 20260504195042 | 24 | 50 | 3.2 | 8.0 | 0.00 | 0.00 | 0.00 | 29 | 1007.6 |
| 20260504194549 | 24 | 34 | 1.6 | 9.7 | 0.00 | 0.00 | 0.00 | 30 | 1007.6 |
| 20260504194042 | 24 | 80 | 3.2 | 9.7 | 0.00 | 0.00 | 0.00 | 29 | 1007.7 |
| 20260504193542 | 24 | 18 | 3.2 | 8.0 | 0.00 | 0.00 | 0.00 | 29 | 1007.6 |
| 20260504193042 | 25 | 116 | 1.6 | 4.8 | 0.00 | 0.00 | 0.00 | 30 | 1007.6 |
| 20260504192541 | 25 | 266 | 0.0 | 6.4 | 0.00 | 0.00 | 0.00 | 29 | 1007.7 |
| 20260504192040 | 23 | 30 | 1.6 | 12.9 | 0.00 | 0.00 | 0.00 | 29 | 1007.7 |
| 20260504191551 | 23 | 19 | 4.8 | 12.9 | 0.00 | 0.00 | 0.00 | 29 | 1007.8 |
| 20260504191040 | 24 | 80 | 4.8 | 11.3 | 0.00 | 0.00 | 0.00 | 29 | 1007.9 |
| 20260504190539 | 24 | 105 | 1.6 | 11.3 | 0.00 | 0.00 | 0.00 | 28 | 1007.9 |
| 20260504190044 | 23 | 295 | 3.2 | 9.7 | 0.00 | 0.00 | 0.00 | 29 | 1007.9 |
| 20260504185538 | 23 | 161 | 1.6 | 6.4 | 0.00 | 0.00 | 0.00 | 31 | 1007.9 |
| 20260504185038 | 23 | 215 | 1.6 | 11.3 | 0.00 | 0.00 | 0.00 | 32 | 1008.0 |
| 20260504184547 | 23 | 355 | 1.6 | 11.3 | 0.00 | 0.00 | 0.00 | 31 | 1008.1 |
| 20260504184037 | 23 | 73 | 1.6 | 11.3 | 0.00 | 0.00 | 0.00 | 32 | 1008.1 |
| 20260504183537 | 23 | 59 | 3.2 | 9.7 | 0.00 | 0.00 | 0.00 | 33 | 1008.1 |
| 20260504183035 | 23 | 171 | 3.2 | 11.3 | 0.00 | 0.00 | 0.00 | 32 | 1008.1 |
| 20260504182535 | 23 | 33 | 3.2 | 11.3 | 0.00 | 0.00 | 0.00 | 34 | 1008.2 |
| 20260504182034 | 22 | 92 | 1.6 | 8.0 | 0.00 | 0.00 | 0.00 | 34 | 1008.2 |
| 20260504181536 | 22 | 96 | 3.2 | 8.0 | 0.00 | 0.00 | 0.00 | 34 | 1008.2 |
| 20260504181033 | 22 | 221 | 0.0 | 11.3 | 0.00 | 0.00 | 0.00 | 34 | 1008.3 |
| 20260504180532 | 22 | 49 | 1.6 | 8.0 | 0.00 | 0.00 | 0.00 | 34 | 1008.2 |
| 20260504180032 | 21 | 65 | 0.0 | 8.0 | 0.00 | 0.00 | 0.00 | 41 | 1008.3 |
| 20260504175530 | 20 | 201 | 3.2 | 6.4 | 0.00 | 0.00 | 0.00 | 45 | 1008.3 |
| 20260504175030 | 20 | 244 | 4.8 | 6.4 | 0.00 | 0.00 | 0.00 | 43 | 1008.3 |
| 20260504174530 | 20 | 254 | 1.6 | 8.0 | 0.00 | 0.00 | 0.00 | 43 | 1008.4 |
| 20260504174029 | 20 | 185 | 4.8 | 8.0 | 0.00 | 0.00 | 0.00 | 47 | 1008.4 |
| 20260504173528 | 20 | 205 | 3.2 | 8.0 | 0.00 | 0.00 | 0.00 | 47 | 1008.4 |
| 20260504173027 | 19 | 211 | 1.6 | 6.4 | 0.00 | 0.00 | 0.00 | 46 | 1008.4 |
| 20260504172525 | 19 | 192 | 3.2 | 8.0 | 0.00 | 0.00 | 0.00 | 48 | 1008.4 |
| 20260504172023 | 18 | 207 | 3.2 | 8.0 | 0.00 | 0.00 | 0.00 | 49 | 1008.4 |
| 20260504171524 | 18 | 200 | 3.2 | 6.4 | 0.00 | 0.00 | 0.00 | 49 | 1008.5 |
| 20260504171022 | 18 | 253 | 0.0 | 4.8 | 0.00 | 0.00 | 0.00 | 51 | 1008.4 |
| 20260504170520 | 17 | 202 | 0.0 | 6.4 | 0.00 | 0.00 | 0.00 | 51 | 1008.5 |
| 20260504151004 | 10 | 231 | 0.0 | 1.6 | 0.00 | 0.00 | 0.00 | 77 | 1009.0 |
| 20260504150504 | 10 | 231 | 1.6 | 1.6 | 0.00 | 0.00 | 0.00 | 77 | 1009.0 |
| 20260504141001 | 8 | 184 | 0.0 | 3.2 | 0.00 | 0.00 | 0.00 | 83 | 1008.9 |
| 20260504140502 | 8 | 185 | 0.0 | 1.6 | 0.00 | 0.00 | 0.00 | 85 | 1008.9 |
| 20260504130554 | 7 | 30 | 0.0 | 1.6 | 0.00 | 0.00 | 0.00 | 87 | 1008.3 |
| 20260504110538 | 8 | 38 | 0.0 | 3.2 | 0.00 | 0.00 | 0.00 | 81 | 1007.9 |
| 20260504100529 | 9 | 37 | 0.0 | 3.2 | 0.00 | 0.00 | 0.00 | 79 | 1007.8 |
| 20260504081514 | 11 | 34 | 0.0 | 3.2 | 0.00 | 0.00 | 0.00 | 71 | 1007.4 |
| 20260504081015 | 11 | 34 | 1.6 | 3.2 | 0.00 | 0.00 | 0.00 | 70 | 1007.4 |
| 20260504080514 | 11 | 32 | 0.0 | 3.2 | 0.00 | 0.00 | 0.00 | 69 | 1007.4 |
| 20260504050601 | 16 | 32 | 0.0 | 3.2 | 0.00 | 0.00 | 0.00 | 50 | 1007.3 |
| 20260504045600 | 17 | 32 | 1.6 | 3.2 | 0.00 | 0.00 | 0.00 | 49 | 1007.4 |
| 20260504045100 | 17 | 31 | 1.6 | 3.2 | 0.00 | 0.00 | 0.00 | 48 | 1007.3 |
| 20260504044600 | 17 | 38 | 0.0 | 3.2 | 0.00 | 0.00 | 0.00 | 48 | 1007.3 |
| 20260504044100 | 17 | 38 | 0.0 | 1.6 | 0.00 | 0.00 | 0.00 | 48 | 1007.3 |
| 20260504043600 | 17 | 38 | 0.0 | 3.2 | 0.00 | 0.00 | 0.00 | 48 | 1007.3 |
| 20260504043105 | 17 | 36 | 0.0 | 3.2 | 0.00 | 0.00 | 0.00 | 47 | 1007.3 |
| 20260504042559 | 18 | 36 | 0.0 | 3.2 | 0.00 | 0.00 | 0.00 | 47 | 1007.3 |
| 20260504042100 | 18 | 36 | 0.0 | 3.2 | 0.00 | 0.00 | 0.00 | 45 | 1007.3 |
| 20260504041559 | 18 | 36 | 1.6 | 3.2 | 0.00 | 0.00 | 0.00 | 43 | 1007.2 |
| 20260504041059 | 19 | 36 | 0.0 | 3.2 | 0.00 | 0.00 | 0.00 | 42 | 1007.2 |
| 20260504040559 | 19 | 36 | 0.0 | 3.2 | 0.00 | 0.00 | 0.00 | 42 | 1007.3 |
| 20260504040132 | 20 | 36 | 1.6 | 1.6 | 0.00 | 0.00 | 0.00 | 40 | 1007.2 |
| 20260504035559 | 20 | 36 | 1.6 | 1.6 | 0.00 | 0.00 | 0.00 | 40 | 1007.2 |
| 20260504035102 | 20 | 36 | 1.6 | 3.2 | 0.00 | 0.00 | 0.00 | 39 | 1007.1 |
| 20260504034603 | 21 | 35 | 1.6 | 3.2 | 0.00 | 0.00 | 0.00 | 37 | 1007.1 |
| 20260504034058 | 21 | 35 | 0.0 | 3.2 | 0.00 | 0.00 | 0.00 | 35 | 1007.1 |
| 20260504033558 | 21 | 35 | 1.6 | 3.2 | 0.00 | 0.00 | 0.00 | 35 | 1007.1 |
| 20260504033059 | 21 | 36 | 1.6 | 1.6 | 0.00 | 0.00 | 0.00 | 34 | 1007.0 |
| 20260504032558 | 22 | 36 | 1.6 | 3.2 | 0.00 | 0.00 | 0.00 | 34 | 1006.9 |
| 20260504032102 | 22 | 36 | 1.6 | 3.2 | 0.00 | 0.00 | 0.00 | 33 | 1007.0 |
| 20260504031614 | 22 | 35 | 1.6 | 3.2 | 0.00 | 0.00 | 0.00 | 34 | 1006.9 |
| 20260504031057 | 22 | 31 | 1.6 | 4.8 | 0.00 | 0.00 | 0.00 | 32 | 1006.9 |
| 20260504030557 | 22 | 32 | 1.6 | 4.8 | 0.00 | 0.00 | 0.00 | 33 | 1007.0 |
| 20260504030057 | 22 | 340 | 1.6 | 3.2 | 0.00 | 0.00 | 0.00 | 32 | 1006.9 |
| 20260504025557 | 23 | 302 | 0.0 | 3.2 | 0.00 | 0.00 | 0.00 | 31 | 1007.0 |
| 20260504025058 | 23 | 315 | 0.0 | 3.2 | 0.00 | 0.00 | 0.00 | 33 | 1007.0 |
| 20260504024603 | 24 | 325 | 0.0 | 6.4 | 0.00 | 0.00 | 0.00 | 31 | 1007.0 |
| 20260504024056 | 24 | 267 | 1.6 | 6.4 | 0.00 | 0.00 | 0.00 | 29 | 1007.0 |
| 20260504023558 | 25 | 250 | 3.2 | 11.3 | 0.00 | 0.00 | 0.00 | 28 | 1007.0 |
| 20260504023056 | 25 | 275 | 3.2 | 11.3 | 0.00 | 0.00 | 0.00 | 28 | 1007.0 |
| 20260504022556 | 25 | 257 | 4.8 | 9.7 | 0.00 | 0.00 | 0.00 | 30 | 1007.0 |
| 20260504022054 | 25 | 242 | 4.8 | 6.4 | 0.00 | 0.00 | 0.00 | 28 | 1007.0 |
| 20260504021554 | 26 | 225 | 1.6 | 4.8 | 0.00 | 0.00 | 0.00 | 28 | 1007.0 |
| 20260504021053 | 26 | 209 | 3.2 | 4.8 | 0.00 | 0.00 | 0.00 | 25 | 1007.1 |
| 20260504020555 | 26 | 208 | 1.6 | 4.8 | 0.00 | 0.00 | 0.00 | 26 | 1007.1 |
| 20260504020108 | 26 | 234 | 1.6 | 4.8 | 0.00 | 0.00 | 0.00 | 25 | 1007.1 |
| 20260504015557 | 26 | 240 | 1.6 | 4.8 | 0.00 | 0.00 | 0.00 | 27 | 1007.2 |
| 20260504015054 | 26 | 196 | 3.2 | 4.8 | 0.00 | 0.00 | 0.00 | 25 | 1007.2 |
| 20260504014552 | 26 | 247 | 1.6 | 6.4 | 0.00 | 0.00 | 0.00 | 25 | 1007.3 |
| 20260504014051 | 26 | 233 | 3.2 | 6.4 | 0.00 | 0.00 | 0.00 | 25 | 1007.3 |
| 20260504013551 | 26 | 248 | 1.6 | 6.4 | 0.00 | 0.00 | 0.00 | 24 | 1007.4 |
| 20260504013051 | 26 | 212 | 3.2 | 6.4 | 0.00 | 0.00 | 0.00 | 25 | 1007.5 |
| 20260504012550 | 26 | 253 | 1.6 | 4.8 | 0.00 | 0.00 | 0.00 | 25 | 1007.5 |
| 20260504012050 | 26 | 241 | 3.2 | 6.4 | 0.00 | 0.00 | 0.00 | 26 | 1007.5 |
| 20260504011549 | 26 | 200 | 3.2 | 6.4 | 0.00 | 0.00 | 0.00 | 24 | 1007.5 |
| 20260504011048 | 26 | 186 | 3.2 | 4.8 | 0.00 | 0.00 | 0.00 | 25 | 1007.6 |
| 20260504010547 | 26 | 197 | 1.6 | 4.8 | 0.00 | 0.00 | 0.00 | 24 | 1007.7 |
| 20260504010050 | 27 | 209 | 1.6 | 8.0 | 0.00 | 0.00 | 0.00 | 23 | 1007.7 |
| 20260504005546 | 27 | 198 | 3.2 | 8.0 | 0.00 | 0.00 | 0.00 | 24 | 1007.8 |
| 20260504005049 | 27 | 250 | 3.2 | 6.4 | 0.00 | 0.00 | 0.00 | 25 | 1007.8 |
| 20260504004546 | 26 | 245 | 3.2 | 8.0 | 0.00 | 0.00 | 0.00 | 24 | 1007.8 |
| 20260504004046 | 26 | 241 | 4.8 | 8.0 | 0.00 | 0.00 | 0.00 | 24 | 1007.9 |
| 20260504003544 | 27 | 266 | 3.2 | 8.0 | 0.00 | 0.00 | 0.00 | 24 | 1008.0 |
| 20260504003045 | 26 | 259 | 4.8 | 8.0 | 0.00 | 0.00 | 0.00 | 24 | 1008.0 |
| 20260504002544 | 26 | 303 | 1.6 | 8.0 | 0.00 | 0.00 | 0.00 | 24 | 1008.1 |
| 20260504002043 | 27 | 269 | 1.6 | 8.0 | 0.00 | 0.00 | 0.00 | 25 | 1008.1 |
| 20260504001550 | 27 | 261 | 1.6 | 9.7 | 0.00 | 0.00 | 0.00 | 24 | 1008.1 |
| 20260504001042 | 27 | 232 | 4.8 | 9.7 | 0.00 | 0.00 | 0.00 | 24 | 1008.2 |
| 20260504000541 | 27 | 250 | 1.6 | 8.0 | 0.00 | 0.00 | 0.00 | 24 | 1008.3 |
| 20260504000040 | 27 | 344 | 1.6 | 8.0 | 0.00 | 0.00 | 0.00 | 25 | 1008.3 |
| 20260503235540 | 27 | 243 | 3.2 | 8.0 | 0.00 | 0.00 | 0.00 | 25 | 1008.3 |
| 20260503235043 | 26 | 252 | 4.8 | 14.5 | 0.00 | 0.00 | 0.00 | 27 | 1008.3 |
| 20260503234600 | 26 | 244 | 6.4 | 14.5 | 0.00 | 0.00 | 0.00 | 25 | 1008.4 |
| 20260503234038 | 26 | 202 | 4.8 | 11.3 | 0.00 | 0.00 | 0.00 | 24 | 1008.4 |
| 20260503233541 | 27 | 155 | 3.2 | 8.0 | 0.00 | 0.00 | 0.00 | 25 | 1008.5 |
| 20260503233045 | 27 | 344 | 1.6 | 6.4 | 0.00 | 0.00 | 0.00 | 25 | 1008.6 |
| 20260503232536 | 27 | 117 | 3.2 | 4.8 | 0.00 | 0.00 | 0.00 | 24 | 1008.7 |
| 20260503232036 | 27 | 126 | 0.0 | 8.0 | 0.00 | 0.00 | 0.00 | 27 | 1008.8 |
| 20260503231535 | 26 | 302 | 3.2 | 8.0 | 0.00 | 0.00 | 0.00 | 24 | 1008.9 |
| 20260503231034 | 26 | 280 | 1.6 | 11.3 | 0.00 | 0.00 | 0.00 | 24 | 1008.9 |
| 20260503230535 | 26 | 232 | 4.8 | 11.3 | 0.00 | 0.00 | 0.00 | 24 | 1009.0 |
| 20260503230038 | 26 | 349 | 1.6 | 6.4 | 0.00 | 0.00 | 0.00 | 24 | 1009.0 |
| 20260503225531 | 26 | 52 | 1.6 | 8.0 | 0.00 | 0.00 | 0.00 | 26 | 1009.1 |
| 20260503225030 | 26 | 165 | 3.2 | 16.1 | 0.00 | 0.00 | 0.00 | 25 | 1009.2 |
| 20260503224530 | 26 | 254 | 6.4 | 17.7 | 0.00 | 0.00 | 0.00 | 24 | 1009.3 |
| 20260503224030 | 26 | 233 | 8.0 | 17.7 | 0.00 | 0.00 | 0.00 | 25 | 1009.3 |
| 20260503223527 | 26 | 243 | 6.4 | 12.9 | 0.00 | 0.00 | 0.00 | 25 | 1009.6 |
| 20260503223028 | 26 | 266 | 6.4 | 9.7 | 0.00 | 0.00 | 0.00 | 26 | 1009.6 |
| 20260503222527 | 26 | 13 | 0.0 | 11.3 | 0.00 | 0.00 | 0.00 | 25 | 1009.6 |
| 20260503222025 | 26 | 244 | 6.4 | 11.3 | 0.00 | 0.00 | 0.00 | 25 | 1009.7 |
| 20260503221529 | 26 | 240 | 6.4 | 14.5 | 0.00 | 0.00 | 0.00 | 24 | 1009.7 |
| 20260503221024 | 26 | 221 | 8.0 | 14.5 | 0.00 | 0.00 | 0.00 | 25 | 1009.8 |
| 20260503220525 | 26 | 324 | 3.2 | 14.5 | 0.00 | 0.00 | 0.00 | 24 | 1009.9 |
| 20260503220024 | 26 | 219 | 4.8 | 11.3 | 0.00 | 0.00 | 0.00 | 25 | 1009.9 |
| 20260503215523 | 26 | 265 | 1.6 | 12.9 | 0.00 | 0.00 | 0.00 | 25 | 1010.0 |
| 20260503215024 | 26 | 195 | 6.4 | 12.9 | 0.00 | 0.00 | 0.00 | 24 | 1010.1 |
| 20260503214522 | 26 | 200 | 4.8 | 12.9 | 0.00 | 0.00 | 0.00 | 25 | 1010.2 |
| 20260503214022 | 26 | 224 | 8.0 | 12.9 | 0.00 | 0.00 | 0.00 | 25 | 1010.3 |
| 20260503213522 | 26 | 340 | 1.6 | 12.9 | 0.00 | 0.00 | 0.00 | 24 | 1010.4 |
| 20260503213023 | 26 | 192 | 4.8 | 17.7 | 0.00 | 0.00 | 0.00 | 28 | 1010.4 |
| 20260503212521 | 26 | 236 | 6.4 | 14.5 | 0.00 | 0.00 | 0.00 | 26 | 1010.5 |
| 20260503212019 | 26 | 253 | 4.8 | 12.9 | 0.00 | 0.00 | 0.00 | 25 | 1010.6 |
| 20260503211518 | 26 | 263 | 1.6 | 12.9 | 0.00 | 0.00 | 0.00 | 26 | 1010.6 |
| 20260503211017 | 26 | 267 | 1.6 | 12.9 | 0.00 | 0.00 | 0.00 | 25 | 1010.8 |
| 20260503210517 | 25 | 229 | 6.4 | 12.9 | 0.00 | 0.00 | 0.00 | 24 | 1010.8 |
| 20260503210016 | 25 | 296 | 4.8 | 11.3 | 0.00 | 0.00 | 0.00 | 25 | 1010.9 |
| 20260503205516 | 25 | 239 | 4.8 | 14.5 | 0.00 | 0.00 | 0.00 | 24 | 1010.9 |
| 20260503205015 | 26 | 251 | 8.0 | 14.5 | 0.00 | 0.00 | 0.00 | 25 | 1011.0 |
| 20260503204514 | 26 | 243 | 4.8 | 14.5 | 0.00 | 0.00 | 0.00 | 25 | 1011.2 |
| 20260503204013 | 26 | 246 | 8.0 | 14.5 | 0.00 | 0.00 | 0.00 | 24 | 1011.2 |
| 20260503203514 | 26 | 246 | 3.2 | 12.9 | 0.00 | 0.00 | 0.00 | 25 | 1011.2 |
| 20260503203014 | 25 | 290 | 6.4 | 12.9 | 0.00 | 0.00 | 0.00 | 23 | 1011.4 |
| 20260503202511 | 26 | 257 | 3.2 | 9.7 | 0.00 | 0.00 | 0.00 | 25 | 1011.4 |